Time;durP1;ratioP1;P1;durP2;ratioP2;P2;SDS_P1;SDS_P2;PMS_P1;PMS_P2;Temp;Humidity;BMP_temperature;BMP_pressure;BME280_temperature;BME280_humidity;BME280_pressure;Samples;Min_cycle;Max_cycle;Signal;HPM_P1;HPM_P2
2021/09/16 00:00:59;;;;;;;9.27;8.37;;;;;;;17.56;83.19;100464.28;5066807;28;20210;-78
2021/09/16 00:03:28;;;;;;;8.47;7.37;;;;;;;17.55;83.07;100465.28;5068418;28;20293;-79
2021/09/16 00:05:56;;;;;;;9.07;8.00;;;;;;;17.53;82.94;100465.44;5064604;28;20202;-79
2021/09/16 00:08:23;;;;;;;11.57;7.97;;;;;;;17.51;82.88;100458.50;5053637;28;20644;-79
2021/09/16 00:10:49;;;;;;;8.83;7.93;;;;;;;17.50;82.85;100460.34;5067816;28;20294;-79
2021/09/16 00:13:16;;;;;;;10.43;7.73;;;;;;;17.50;82.83;100456.78;5054810;28;20291;-79
2021/09/16 00:15:43;;;;;;;8.43;6.97;;;;;;;17.50;82.73;100462.19;5055196;28;20296;-80
2021/09/16 00:18:13;;;;;;;7.33;6.53;;;;;;;17.50;82.59;100464.88;5057031;28;20686;-79
2021/09/16 00:20:40;;;;;;;11.80;6.23;;;;;;;17.46;82.55;100461.63;5070445;28;20294;-79
2021/09/16 00:23:07;;;;;;;7.10;6.33;;;;;;;17.45;82.27;100467.16;5057180;28;20786;-78
2021/09/16 00:25:34;;;;;;;5.93;5.33;;;;;;;17.42;82.09;100473.66;5059912;28;20211;-78
2021/09/16 00:28:01;;;;;;;6.87;5.30;;;;;;;17.41;82.02;100477.34;5055376;28;20291;-79
2021/09/16 00:30:27;;;;;;;5.57;5.00;;;;;;;17.39;81.98;100473.94;5060963;28;20218;-81
2021/09/16 00:32:54;;;;;;;6.13;4.50;;;;;;;17.38;81.74;100471.44;5065688;28;20310;-79
2021/09/16 00:35:20;;;;;;;5.93;4.87;;;;;;;17.35;81.62;100475.25;5065153;28;20230;-78
2021/09/16 00:37:47;;;;;;;4.20;3.80;;;;;;;17.33;81.61;100486.16;5066829;28;20319;-80
2021/09/16 00:40:15;;;;;;;5.73;3.47;;;;;;;17.31;81.29;100480.06;5063309;28;20236;-78
2021/09/16 00:42:44;;;;;;;3.60;3.30;;;;;;;17.30;81.14;100483.75;5054422;28;20228;-80
2021/09/16 00:45:11;;;;;;;5.37;4.00;;;;;;;17.26;80.88;100485.03;5057413;28;20208;-82
2021/09/16 00:47:41;;;;;;;4.70;3.53;;;;;;;17.25;80.97;100485.19;5055147;28;20231;-79
2021/09/16 00:50:09;;;;;;;4.97;3.37;;;;;;;17.22;80.63;100490.84;5056662;28;20201;-80
2021/09/16 00:52:39;;;;;;;5.03;3.77;;;;;;;17.20;80.73;100488.28;5057502;28;20224;-80
2021/09/16 00:55:07;;;;;;;4.20;3.67;;;;;;;17.19;80.57;100486.63;5056671;28;20270;-80
2021/09/16 00:57:37;;;;;;;3.70;3.40;;;;;;;17.19;80.59;100489.31;5063004;28;20678;-79
2021/09/16 01:00:07;;;;;;;5.57;3.73;;;;;;;17.20;80.62;100487.44;5067518;28;20264;-79
2021/09/16 01:02:36;;;;;;;5.70;3.73;;;;;;;17.19;80.80;100489.31;5062446;28;20242;-79
2021/09/16 01:05:04;;;;;;;6.73;4.60;;;;;;;17.22;80.94;100490.84;5057725;28;20565;-80
2021/09/16 01:07:31;;;;;;;4.93;3.87;;;;;;;17.20;80.83;100482.91;5069739;28;20331;-80
2021/09/16 01:09:59;;;;;;;3.37;3.07;;;;;;;17.20;80.84;100480.22;5075226;28;20215;-79
2021/09/16 01:12:28;;;;;;;4.63;3.33;;;;;;;17.19;80.98;100486.63;5062862;28;20210;-82
2021/09/16 01:14:56;;;;;;;9.87;3.20;;;;;;;17.19;80.80;100496.53;5055853;28;20238;-82
2021/09/16 01:17:23;;;;;;;5.90;3.43;;;;;;;17.19;80.89;100488.47;5043766;28;20663;-82
2021/09/16 01:19:49;;;;;;;3.30;3.00;;;;;;;17.18;80.86;100498.38;5054057;28;20242;-82
2021/09/16 01:22:20;;;;;;;4.27;3.00;;;;;;;17.18;80.94;100494.84;5060600;28;20243;-82
2021/09/16 01:24:50;;;;;;;3.97;3.17;;;;;;;17.18;81.02;100497.53;5059759;28;20665;-82
2021/09/16 01:27:18;;;;;;;4.33;3.07;;;;;;;17.16;80.97;100500.38;5048666;28;20227;-82
2021/09/16 01:29:44;;;;;;;4.43;3.60;;;;;;;17.15;81.00;100501.34;5066238;28;20204;-82
2021/09/16 01:32:11;;;;;;;5.77;4.10;;;;;;;17.15;81.02;100497.81;5057355;28;20204;-82
2021/09/16 01:34:38;;;;;;;6.00;4.00;;;;;;;17.14;81.04;100491.56;5061813;28;20254;-82
2021/09/16 01:37:07;;;;;;;8.03;4.20;;;;;;;17.14;81.23;100488.88;5058458;28;20222;-84
2021/09/16 01:39:34;;;;;;;4.40;3.83;;;;;;;17.14;81.33;100488.88;5062300;28;20247;-81
2021/09/16 01:42:02;;;;;;;7.57;4.67;;;;;;;17.14;81.40;100490.72;5065628;28;20212;-80
2021/09/16 01:44:29;;;;;;;4.40;3.87;;;;;;;17.14;81.49;100496.09;5056268;28;20242;-80
2021/09/16 01:46:55;;;;;;;5.87;4.37;;;;;;;17.12;81.47;100496.25;5067904;28;20212;-83
2021/09/16 01:49:22;;;;;;;6.73;4.60;;;;;;;17.12;81.55;100501.63;5050921;28;20714;-82
2021/09/16 01:51:49;;;;;;;3.93;3.53;;;;;;;17.12;81.65;100500.78;5056740;28;20219;-83
2021/09/16 01:54:15;;;;;;;5.83;3.73;;;;;;;17.10;81.67;100495.53;5053051;28;20230;-82
2021/09/16 01:56:42;;;;;;;5.70;4.60;;;;;;;17.10;81.85;100497.38;5051298;28;20250;-83
2021/09/16 01:59:10;;;;;;;7.60;3.40;;;;;;;17.08;81.80;100500.22;5047178;28;20308;-83
2021/09/16 02:01:36;;;;;;;5.83;3.77;;;;;;;17.05;81.74;100505.88;5055608;28;20643;-82
2021/09/16 02:04:03;;;;;;;6.87;3.30;;;;;;;17.05;81.70;100505.88;5055920;28;20317;-81
2021/09/16 02:06:30;;;;;;;3.83;3.33;;;;;;;17.04;81.84;100514.94;5055128;28;20228;-82
2021/09/16 02:08:56;;;;;;;3.07;2.77;;;;;;;17.04;81.77;100508.69;5052847;28;20643;-83
2021/09/16 02:11:23;;;;;;;3.73;2.70;;;;;;;17.03;81.67;100515.91;5049045;28;20298;-82
2021/09/16 02:13:49;;;;;;;3.63;2.83;;;;;;;17.02;81.56;100513.41;5064711;28;20265;-83
2021/09/16 02:16:17;;;;;;;3.60;2.90;;;;;;;17.00;82.00;100506.31;5051273;28;20632;-80
2021/09/16 02:18:44;;;;;;;3.93;2.40;;;;;;;17.00;82.03;100518.91;5055751;28;20310;-82
2021/09/16 02:21:11;;;;;;;2.77;2.07;;;;;;;16.97;81.85;100513.81;5074624;22;20330;-70
2021/09/16 02:23:37;;;;;;;3.63;1.97;;;;;;;16.94;81.68;100517.63;5069459;28;20257;-71
2021/09/16 02:26:04;;;;;;;2.97;1.90;;;;;;;16.87;81.53;100518.31;5063519;28;20306;-71
2021/09/16 02:31:10;;;;;;;4.47;1.00;;;;;;;16.76;81.18;100521.16;5055895;28;20223;-72
2021/09/16 02:33:38;;;;;;;2.63;1.17;;;;;;;16.70;80.84;100529.78;5065565;28;20207;-76
2021/09/16 02:36:05;;;;;;;3.83;0.97;;;;;;;16.64;80.48;100532.06;5056447;28;20483;-74
2021/09/16 02:38:32;;;;;;;2.30;1.03;;;;;;;16.55;79.71;100527.47;5064693;28;20235;-74
2021/09/16 02:40:58;;;;;;;2.50;0.80;;;;;;;16.49;79.81;100533.38;5043159;28;20312;-74
2021/09/16 02:43:25;;;;;;;1.77;0.70;;;;;;;16.42;78.89;100547.53;5052221;28;20210;-74
2021/09/16 02:45:51;;;;;;;3.70;0.77;;;;;;;16.33;78.26;100539.28;5037060;28;20218;-73
2021/09/16 02:48:18;;;;;;;3.77;0.80;;;;;;;16.26;77.82;100538.13;5032522;28;20204;-74
2021/09/16 02:50:46;;;;;;;2.70;0.67;;;;;;;16.21;77.75;100548.44;5048658;28;20219;-74
2021/09/16 02:53:13;;;;;;;2.27;0.60;;;;;;;16.17;77.60;100547.00;5050953;28;20214;-74
2021/09/16 02:55:39;;;;;;;1.83;0.90;;;;;;;16.16;77.46;100550.66;5045460;28;20207;-73
2021/09/16 02:58:06;;;;;;;2.93;0.73;;;;;;;16.16;77.30;100548.00;5037469;28;20228;-74
2021/09/16 03:00:32;;;;;;;4.60;0.93;;;;;;;16.16;77.35;100550.66;5051664;28;20317;-74
2021/09/16 03:02:59;;;;;;;1.53;0.63;;;;;;;16.15;77.44;100548.13;5049822;28;20206;-73
2021/09/16 03:05:26;;;;;;;3.37;0.60;;;;;;;16.10;77.07;100555.75;5050300;28;20660;-74
2021/09/16 03:07:54;;;;;;;2.87;0.90;;;;;;;16.09;76.81;100562.13;5051038;28;20203;-74
2021/09/16 03:10:20;;;;;;;1.30;0.73;;;;;;;16.08;77.03;100561.25;5041228;28;20597;-74
2021/09/16 03:12:47;;;;;;;2.07;0.80;;;;;;;16.08;76.88;100560.41;5036103;28;20303;-74
2021/09/16 03:15:14;;;;;;;2.13;0.60;;;;;;;16.07;76.96;100556.88;5042617;28;20590;-75
2021/09/16 03:17:40;;;;;;;1.17;0.50;;;;;;;16.07;76.73;100547.97;5046356;28;20318;-74
2021/09/16 03:20:08;;;;;;;2.10;0.60;;;;;;;16.07;76.96;100558.72;5048328;28;20794;-74
2021/09/16 03:22:35;;;;;;;1.87;0.70;;;;;;;16.05;76.63;100555.31;5051180;28;20208;-74
2021/09/16 03:25:03;;;;;;;2.57;0.80;;;;;;;16.04;76.47;100558.97;5049399;28;20221;-74
2021/09/16 03:27:30;;;;;;;1.90;0.53;;;;;;;16.02;76.69;100556.41;5031841;28;20210;-74
2021/09/16 03:29:57;;;;;;;2.73;0.87;;;;;;;16.03;76.61;100558.13;5034765;28;20507;-74
2021/09/16 03:32:23;;;;;;;2.87;0.80;;;;;;;16.02;76.59;100563.63;5045213;28;20223;-74
2021/09/16 03:34:50;;;;;;;2.30;0.60;;;;;;;16.02;76.92;100563.63;5043360;28;20659;-74
2021/09/16 03:37:16;;;;;;;4.73;0.67;;;;;;;16.01;76.70;100565.47;5040545;28;20231;-74
2021/09/16 03:39:43;;;;;;;4.40;0.60;;;;;;;16.01;76.62;100561.91;5046872;28;20226;-73
2021/09/16 03:42:11;;;;;;;1.60;0.67;;;;;;;16.00;76.54;100566.44;5044623;28;20202;-78
2021/09/16 03:44:38;;;;;;;3.90;0.67;;;;;;;15.98;76.50;100576.47;5046517;28;20216;-76
2021/09/16 03:47:05;;;;;;;0.80;0.60;;;;;;;15.98;76.14;100585.38;5048063;28;20663;-74
2021/09/16 03:49:35;;;;;;;2.23;0.60;;;;;;;15.98;76.55;100577.31;5049413;28;20305;-74
2021/09/16 03:52:02;;;;;;;2.13;0.60;;;;;;;15.98;76.67;100581.84;5040137;28;20214;-74
2021/09/16 03:54:28;;;;;;;1.10;0.47;;;;;;;15.96;76.67;100575.75;5050125;28;20213;-74
2021/09/16 03:56:55;;;;;;;3.70;0.80;;;;;;;15.94;76.48;100583.94;5038599;28;20699;-75
2021/09/16 03:59:23;;;;;;;1.80;0.67;;;;;;;15.92;76.33;100577.03;5048320;28;20570;-74
2021/09/16 04:01:49;;;;;;;1.13;0.53;;;;;;;15.90;76.75;100577.16;5049675;28;20206;-74
2021/09/16 04:04:16;;;;;;;1.93;0.50;;;;;;;15.88;76.92;100579.09;5036691;28;20298;-74
2021/09/16 04:06:42;;;;;;;2.07;0.93;;;;;;;15.89;76.74;100574.59;5042875;28;20210;-74
2021/09/16 04:09:09;;;;;;;4.93;1.00;;;;;;;15.86;76.96;100578.38;5040189;28;20246;-74
2021/09/16 04:11:36;;;;;;;2.57;0.73;;;;;;;15.86;77.10;100577.53;5049130;28;20234;-74
2021/09/16 04:14:02;;;;;;;3.60;0.97;;;;;;;15.84;76.85;100576.81;5040019;28;20642;-74
2021/09/16 04:16:31;;;;;;;3.03;0.97;;;;;;;15.85;77.28;100584.75;5040710;28;20206;-74
2021/09/16 04:18:57;;;;;;;1.73;0.73;;;;;;;15.83;77.04;100583.16;5042714;28;20244;-73
2021/09/16 04:21:24;;;;;;;4.00;0.90;;;;;;;15.81;77.32;100582.44;5044179;28;20201;-74
2021/09/16 04:23:51;;;;;;;1.67;0.87;;;;;;;15.79;77.07;100577.19;5048056;28;20205;-75
2021/09/16 04:26:18;;;;;;;4.23;1.17;;;;;;;15.78;77.44;100577.34;5043247;28;20283;-74
2021/09/16 04:28:44;;;;;;;5.23;0.70;;;;;;;15.77;77.31;100579.16;5045546;28;20714;-76
2021/09/16 04:31:11;;;;;;;3.10;1.00;;;;;;;15.76;77.08;100582.88;5045124;28;20301;-72
2021/09/16 04:33:39;;;;;;;2.47;0.70;;;;;;;15.74;77.32;100582.13;5048512;28;20292;-74
2021/09/16 04:36:06;;;;;;;3.27;0.60;;;;;;;15.73;77.27;100585.81;5043706;28;20197;-75
2021/09/16 04:38:32;;;;;;;1.80;0.70;;;;;;;15.72;77.07;100589.47;5045769;28;20767;-74
2021/09/16 04:40:59;;;;;;;3.30;0.67;;;;;;;15.71;77.28;100587.78;5047692;28;20208;-74
2021/09/16 04:43:26;;;;;;;2.67;0.60;;;;;;;15.70;77.33;100591.44;5043237;28;20431;-73
2021/09/16 04:45:53;;;;;;;4.57;0.80;;;;;;;15.69;77.43;100587.03;5041822;28;20384;-74
2021/09/16 04:48:19;;;;;;;2.43;0.63;;;;;;;15.69;77.33;100592.41;5041620;28;20293;-73
2021/09/16 04:50:47;;;;;;;10.37;0.97;;;;;;;15.68;77.42;100593.41;5043223;28;20317;-73
2021/09/16 04:53:14;;;;;;;6.30;1.03;;;;;;;15.68;77.42;100592.53;5042243;28;20671;-75
2021/09/16 04:55:41;;;;;;;3.63;1.00;;;;;;;15.66;77.53;100590.00;5043856;28;20230;-75
2021/09/16 04:58:07;;;;;;;1.80;0.80;;;;;;;15.66;77.62;100592.66;5043860;28;20233;-74
2021/09/16 05:00:34;;;;;;;2.63;0.73;;;;;;;15.62;77.64;100593.91;5045285;28;20320;-74
2021/09/16 05:03:01;;;;;;;2.63;1.07;;;;;;;15.61;77.80;100592.19;5040844;28;20198;-76
2021/09/16 05:05:28;;;;;;;2.60;0.80;;;;;;;15.59;77.78;100589.66;5039247;28;20202;-74
2021/09/16 05:07:56;;;;;;;1.10;0.77;;;;;;;15.60;78.07;100599.41;5040221;28;20205;-74
2021/09/16 05:10:23;;;;;;;6.30;1.20;;;;;;;15.60;77.99;100593.19;5049169;28;20308;-74
2021/09/16 05:12:49;;;;;;;4.33;1.20;;;;;;;15.60;77.96;100598.56;5039068;28;20692;-81
2021/09/16 05:15:16;;;;;;;5.50;1.27;;;;;;;15.59;78.15;100599.53;5039525;28;20218;-74
2021/09/16 05:17:42;;;;;;;4.47;1.30;;;;;;;15.58;78.18;100606.75;5040478;28;20225;-75
2021/09/16 05:20:10;;;;;;;3.70;1.40;;;;;;;15.58;78.49;100604.09;5046141;28;20236;-74
2021/09/16 05:22:37;;;;;;;3.00;1.07;;;;;;;15.58;78.34;100604.09;5041010;28;20292;-75
2021/09/16 05:25:05;;;;;;;4.37;1.20;;;;;;;15.57;78.37;100599.69;5037689;28;20213;-75
2021/09/16 05:27:32;;;;;;;4.40;1.23;;;;;;;15.57;78.40;100596.16;5048473;28;20284;-75
2021/09/16 05:29:59;;;;;;;4.07;1.10;;;;;;;15.55;78.17;100590.91;5038277;28;20234;-74
2021/09/16 05:32:27;;;;;;;2.47;1.07;;;;;;;15.54;78.29;100591.00;5052925;28;20301;-75
2021/09/16 05:34:54;;;;;;;3.83;1.60;;;;;;;15.54;78.16;100591.88;5037682;28;20687;-74
2021/09/16 05:37:20;;;;;;;3.40;1.40;;;;;;;15.54;78.28;100586.50;5037154;28;20212;-75
2021/09/16 05:39:47;;;;;;;4.87;1.20;;;;;;;15.55;78.06;100592.72;5039448;28;20810;-73
2021/09/16 05:42:15;;;;;;;2.57;1.20;;;;;;;15.54;78.20;100589.19;5035073;28;20227;-74
2021/09/16 05:44:41;;;;;;;4.20;0.83;;;;;;;15.57;78.26;100593.47;5033786;28;20290;-75
2021/09/16 05:47:08;;;;;;;3.27;1.43;;;;;;;15.57;77.89;100590.78;5040554;28;20206;-74
2021/09/16 05:49:35;;;;;;;1.10;0.77;;;;;;;15.54;77.77;100594.53;5033380;28;20226;-75
2021/09/16 05:52:01;;;;;;;3.37;0.87;;;;;;;15.55;77.76;100595.41;5043503;28;20304;-75
2021/09/16 05:54:28;;;;;;;2.40;0.90;;;;;;;15.54;77.44;100591.00;5042130;28;20911;-75
2021/09/16 05:56:54;;;;;;;1.97;0.87;;;;;;;15.54;77.26;100596.38;5044119;28;20652;-74
2021/09/16 05:59:22;;;;;;;6.43;0.90;;;;;;;15.54;77.33;100599.06;5046628;28;20643;-74
2021/09/16 06:01:49;;;;;;;2.93;0.80;;;;;;;15.55;77.34;100607.03;5032957;28;20202;-73
2021/09/16 06:04:15;;;;;;;1.10;0.90;;;;;;;15.54;76.90;100607.97;5041736;28;20214;-75
2021/09/16 06:06:42;;;;;;;3.20;0.90;;;;;;;15.52;76.60;100607.25;5033131;28;20211;-75
2021/09/16 06:09:08;;;;;;;2.33;0.67;;;;;;;15.53;76.23;100594.69;5040028;28;20222;-75
2021/09/16 06:11:35;;;;;;;2.77;0.90;;;;;;;15.52;76.22;100599.19;5043348;28;20205;-75
2021/09/16 06:14:02;;;;;;;2.07;0.50;;;;;;;15.50;75.77;100609.19;5037609;28;20202;-75
2021/09/16 06:16:30;;;;;;;1.83;0.70;;;;;;;15.50;75.76;100603.84;5047393;28;20208;-75
2021/09/16 06:18:56;;;;;;;2.03;0.70;;;;;;;15.52;75.61;100604.56;5038456;28;20230;-74
2021/09/16 06:21:23;;;;;;;1.90;1.07;;;;;;;15.52;75.14;100609.06;5039467;28;20681;-75
2021/09/16 06:23:49;;;;;;;2.50;0.60;;;;;;;15.53;75.25;100608.09;5039951;28;20206;-75
2021/09/16 06:26:16;;;;;;;5.93;0.80;;;;;;;15.56;75.26;100615.94;5045096;28;20201;-74
2021/09/16 06:28:43;;;;;;;2.30;0.70;;;;;;;15.59;74.86;100618.31;5037611;28;20202;-74
2021/09/16 06:31:09;;;;;;;3.13;0.77;;;;;;;15.60;74.93;100618.19;5040100;28;20214;-75
2021/09/16 06:33:37;;;;;;;2.07;0.70;;;;;;;15.63;74.92;100627.81;5036437;28;20207;-74
2021/09/16 06:36:05;;;;;;;2.53;0.80;;;;;;;15.63;74.73;100633.19;5046361;28;20534;-74
2021/09/16 06:38:31;;;;;;;3.70;0.90;;;;;;;15.65;75.04;100627.69;5036251;28;20646;-75
2021/09/16 06:40:58;;;;;;;1.63;0.80;;;;;;;15.66;74.72;100629.41;5041525;28;20754;-75
2021/09/16 06:43:25;;;;;;;1.27;0.77;;;;;;;15.67;74.75;100628.44;5034504;28;20588;-75
2021/09/16 06:45:51;;;;;;;3.00;0.90;;;;;;;15.69;75.01;100626.47;5039170;28;20230;-73
2021/09/16 06:48:18;;;;;;;5.17;1.00;;;;;;;15.69;74.98;100621.09;5033718;28;20259;-72
2021/09/16 06:50:46;;;;;;;4.77;1.20;;;;;;;15.70;74.90;100634.41;5041531;28;20677;-75
2021/09/16 06:53:12;;;;;;;2.07;0.90;;;;;;;15.71;75.01;100641.47;5046702;28;20206;-75
2021/09/16 06:55:39;;;;;;;2.93;0.90;;;;;;;15.73;75.22;100644.03;5034618;28;20204;-75
2021/09/16 06:58:05;;;;;;;2.73;1.00;;;;;;;15.76;75.08;100638.41;5032678;28;20668;-75
2021/09/16 07:00:32;;;;;;;4.30;1.00;;;;;;;15.79;74.95;100643.47;5036079;28;20704;-74
2021/09/16 07:02:59;;;;;;;5.50;1.10;;;;;;;15.82;75.01;100649.44;5036423;28;20240;-75
2021/09/16 07:05:25;;;;;;;1.70;0.70;;;;;;;15.86;74.85;100644.69;5031131;28;20206;-75
2021/09/16 07:07:53;;;;;;;2.47;0.70;;;;;;;15.88;74.95;100642.72;5039418;28;20206;-75
2021/09/16 07:10:20;;;;;;;2.80;0.70;;;;;;;15.92;74.68;100638.78;5034550;28;20695;-75
2021/09/16 07:12:47;;;;;;;2.77;0.73;;;;;;;15.93;74.46;100641.34;5033154;28;20316;-75
2021/09/16 07:15:13;;;;;;;2.63;1.00;;;;;;;15.96;74.37;100638.38;5038553;28;20209;-75
2021/09/16 07:17:40;;;;;;;2.47;0.70;;;;;;;16.08;74.69;100632.94;5036171;28;20206;-75
2021/09/16 07:20:08;;;;;;;4.10;0.87;;;;;;;16.20;74.36;100642.63;5030667;28;20318;-75
2021/09/16 07:22:34;;;;;;;3.40;0.80;;;;;;;16.32;74.11;100639.69;5040244;28;20729;-75
2021/09/16 07:25:03;;;;;;;3.73;0.83;;;;;;;16.48;73.88;100636.50;5035437;28;20207;-75
2021/09/16 07:27:30;;;;;;;5.97;1.10;;;;;;;16.64;73.56;100642.31;5035288;28;20208;-75
2021/09/16 07:29:56;;;;;;;5.50;1.37;;;;;;;16.76;72.57;100648.41;5036041;28;20230;-74
2021/09/16 07:32:23;;;;;;;3.93;0.90;;;;;;;16.89;72.52;100646.31;5034855;28;20213;-74
2021/09/16 07:34:49;;;;;;;8.10;1.53;;;;;;;17.05;72.17;100642.25;5033727;28;20208;-75
2021/09/16 07:37:16;;;;;;;6.67;1.20;;;;;;;17.19;71.77;100645.41;5038009;28;20638;-75
2021/09/16 07:39:42;;;;;;;4.30;0.83;;;;;;;17.26;70.74;100643.00;5037600;28;20241;-75
2021/09/16 07:42:10;;;;;;;3.70;0.70;;;;;;;17.33;70.49;100649.53;5036334;28;20203;-76
2021/09/16 07:44:37;;;;;;;3.10;0.90;;;;;;;17.44;70.62;100645.84;5036461;28;20312;-75
2021/09/16 07:47:04;;;;;;;2.13;0.80;;;;;;;17.54;70.25;100646.72;5035720;28;20288;-75
2021/09/16 07:49:30;;;;;;;4.63;0.90;;;;;;;17.64;70.15;100656.50;5036173;28;20221;-75
2021/09/16 07:51:57;;;;;;;2.77;1.00;;;;;;;17.71;69.39;100656.78;5035946;28;20205;-75
2021/09/16 07:54:24;;;;;;;2.40;0.80;;;;;;;17.75;68.85;100654.63;5031896;28;20291;-75
2021/09/16 07:56:50;;;;;;;2.30;1.00;;;;;;;17.74;68.18;100652.94;5042318;28;20202;-73
2021/09/16 07:59:18;;;;;;;3.53;1.00;;;;;;;17.74;68.29;100653.78;5044360;28;20313;-76
2021/09/16 08:01:45;;;;;;;1.80;0.70;;;;;;;17.74;68.00;100651.09;5040995;28;20566;-76
2021/09/16 08:04:11;;;;;;;2.43;0.80;;;;;;;17.71;67.55;100659.50;5044899;28;20207;-75
2021/09/16 08:06:38;;;;;;;3.47;0.87;;;;;;;17.65;67.08;100654.66;5049305;28;20749;-76
2021/09/16 08:09:05;;;;;;;2.77;0.83;;;;;;;17.57;67.13;100651.78;5041645;28;20245;-74
2021/09/16 08:11:31;;;;;;;2.27;0.80;;;;;;;17.52;67.07;100654.06;5037580;28;20211;-75
2021/09/16 08:13:58;;;;;;;2.80;1.03;;;;;;;17.48;67.47;100655.34;5048048;28;20206;-75
2021/09/16 08:16:26;;;;;;;3.60;0.70;;;;;;;17.49;67.84;100663.28;5039011;28;20766;-75
2021/09/16 08:18:53;;;;;;;2.20;0.70;;;;;;;17.50;67.78;100661.44;5044453;28;20228;-75
2021/09/16 08:21:19;;;;;;;3.50;1.00;;;;;;;17.51;67.83;100668.53;5045678;28;20236;-75
2021/09/16 08:23:46;;;;;;;3.83;0.90;;;;;;;17.51;67.88;100658.59;5044739;28;20204;-75
2021/09/16 08:26:13;;;;;;;1.80;0.90;;;;;;;17.54;67.97;100649.41;5040551;28;20213;-75
2021/09/16 08:28:40;;;;;;;7.27;1.10;;;;;;;17.54;67.72;100658.34;5042543;28;20213;-76
2021/09/16 08:31:07;;;;;;;3.10;1.00;;;;;;;17.52;67.23;100652.22;5085303;22;20227;-74
2021/09/16 08:33:35;;;;;;;3.10;1.03;;;;;;;17.51;67.50;100647.84;5059489;28;20203;-72
2021/09/16 08:36:02;;;;;;;3.77;1.00;;;;;;;17.49;67.85;100649.81;5059012;28;20212;-73
2021/09/16 08:38:29;;;;;;;1.63;0.80;;;;;;;17.53;68.20;100653.94;5058423;28;20205;-73
2021/09/16 08:40:56;;;;;;;5.23;1.27;;;;;;;17.54;68.42;100658.34;5062058;28;20251;-73
2021/09/16 08:43:28;;;;;;;4.53;1.00;;;;;;;17.62;68.72;100654.91;5064921;28;20290;-73
2021/09/16 08:45:55;;;;;;;4.17;1.30;;;;;;;17.63;68.65;100660.16;5066229;28;20204;-72
2021/09/16 08:48:22;;;;;;;2.13;0.90;;;;;;;17.62;68.25;100655.75;5063311;28;20206;-71
2021/09/16 08:50:50;;;;;;;2.83;1.33;;;;;;;17.61;68.33;100661.28;5067807;28;20606;-72
2021/09/16 08:53:21;;;;;;;2.87;1.20;;;;;;;17.59;68.53;100665.97;5067091;28;20208;-73
2021/09/16 08:55:50;;;;;;;2.87;1.00;;;;;;;17.59;68.67;100671.34;5068890;28;20289;-73
2021/09/16 08:58:19;;;;;;;1.37;0.90;;;;;;;17.56;69.01;100675.16;5065925;28;20692;-72
2021/09/16 09:00:46;;;;;;;1.60;0.90;;;;;;;17.54;69.13;100673.63;5064164;28;20334;-73
2021/09/16 09:03:13;;;;;;;2.03;0.77;;;;;;;17.52;69.44;100675.63;5066611;28;20212;-72
2021/09/16 09:05:41;;;;;;;3.40;1.20;;;;;;;17.51;69.63;100673.91;5068605;28;20306;-73
2021/09/16 09:08:10;;;;;;;1.93;1.13;;;;;;;17.51;69.88;100673.91;5068394;28;20207;-71
2021/09/16 09:10:43;;;;;;;2.43;1.33;;;;;;;17.50;70.38;100674.91;5067791;28;20310;-72
2021/09/16 09:13:13;;;;;;;6.23;1.60;;;;;;;17.47;70.70;100667.09;5061395;28;20245;-72
2021/09/16 09:15:41;;;;;;;4.33;1.00;;;;;;;17.45;70.84;100669.94;5060313;28;20293;-73
2021/09/16 09:18:11;;;;;;;2.77;1.00;;;;;;;17.46;71.21;100670.78;5066098;28;20275;-72
2021/09/16 09:20:55;;;;;;;2.93;1.10;;;;;;;17.43;71.32;100681.81;5059471;28;20784;-72
2021/09/16 09:23:26;;;;;;;1.80;1.10;;;;;;;17.40;71.54;100676.72;5059508;28;20201;-72
2021/09/16 09:25:53;;;;;;;5.23;1.30;;;;;;;17.40;71.67;100672.19;5059431;28;20307;-72
2021/09/16 09:28:28;;;;;;;2.53;1.40;;;;;;;17.41;71.84;100683.81;5054656;28;20211;-72
2021/09/16 09:30:55;;;;;;;1.77;0.90;;;;;;;17.44;72.07;100676.31;5059579;28;20240;-72
2021/09/16 09:33:28;;;;;;;3.50;1.07;;;;;;;17.45;71.99;100679.84;5061670;28;20207;-72
2021/09/16 09:35:55;;;;;;;1.63;0.83;;;;;;;17.46;72.11;100682.41;5059791;28;20204;-72
2021/09/16 09:38:26;;;;;;;1.63;0.87;;;;;;;17.49;72.23;100681.28;5064676;28;20297;-73
2021/09/16 09:40:55;;;;;;;1.93;0.90;;;;;;;17.50;72.30;100677.59;5062715;28;20243;-73
2021/09/16 09:43:28;;;;;;;0.97;0.87;;;;;;;17.52;72.31;100672.91;5062735;28;20258;-72
2021/09/16 09:45:59;;;;;;;1.60;1.20;;;;;;;17.54;72.31;100684.41;5069420;28;20276;-73
2021/09/16 09:48:26;;;;;;;2.30;1.10;;;;;;;17.56;72.26;100671.63;5064258;28;20216;-73
2021/09/16 09:50:54;;;;;;;1.83;0.97;;;;;;;17.58;72.32;100681.25;5065361;28;20615;-73
2021/09/16 09:53:20;;;;;;;3.40;1.07;;;;;;;17.65;72.70;100686.97;5065404;28;20208;-73
2021/09/16 09:55:51;;;;;;;2.30;0.90;;;;;;;17.72;72.52;100685.44;5067259;28;20668;-73
2021/09/16 09:58:30;;;;;;;2.77;1.20;;;;;;;17.76;72.30;100683.28;5063161;28;20221;-72
2021/09/16 10:00:56;;;;;;;1.03;1.03;;;;;;;17.78;72.48;100687.53;5066341;28;20228;-73
2021/09/16 10:03:28;;;;;;;1.47;1.10;;;;;;;17.82;71.96;100696.19;5068922;28;20197;-73
2021/09/16 10:06:08;;;;;;;3.03;1.23;;;;;;;17.85;72.04;100694.06;5063336;28;20672;-73
2021/09/16 10:08:35;;;;;;;3.90;1.37;;;;;;;17.90;72.11;100702.59;5067217;28;20213;-72
2021/09/16 10:11:03;;;;;;;2.73;1.70;;;;;;;17.91;71.59;100706.13;5068070;28;20218;-72
2021/09/16 10:13:32;;;;;;;7.07;1.60;;;;;;;17.90;71.44;100699.03;5071279;28;20206;-72
2021/09/16 10:16:03;;;;;;;2.70;1.60;;;;;;;17.90;71.30;100702.59;5070780;28;20206;-72
2021/09/16 10:18:31;;;;;;;2.07;1.80;;;;;;;17.90;71.20;100707.13;5065614;28;20216;-73
2021/09/16 10:20:59;;;;;;;4.13;2.20;;;;;;;17.87;71.05;100702.00;5068904;28;20235;-72
2021/09/16 10:23:27;;;;;;;3.60;1.80;;;;;;;17.85;70.73;100707.53;5070548;28;20225;-73
2021/09/16 10:25:55;;;;;;;2.83;1.93;;;;;;;17.86;70.87;100703.84;5061676;28;20210;-72
2021/09/16 10:28:23;;;;;;;2.67;1.97;;;;;;;17.88;70.75;100699.19;5061223;28;20211;-72
2021/09/16 10:30:51;;;;;;;3.47;2.23;;;;;;;17.86;70.36;100708.41;5068283;28;20230;-72
2021/09/16 10:33:19;;;;;;;2.87;2.30;;;;;;;17.83;70.49;100712.22;5062885;28;20206;-73
2021/09/16 10:35:48;;;;;;;4.07;1.77;;;;;;;17.83;70.41;100712.22;5061315;28;20300;-72
2021/09/16 10:38:26;;;;;;;2.13;1.93;;;;;;;17.80;70.57;100704.41;5064489;28;20220;-72
2021/09/16 10:41:21;;;;;;;2.30;2.10;;;;;;;17.79;70.45;100702.72;5067924;28;20221;-72
2021/09/16 10:44:10;;;;;;;4.40;2.10;;;;;;;17.87;70.93;100708.25;5048742;28;20205;-72
2021/09/16 10:46:38;;;;;;;5.43;2.13;;;;;;;17.99;70.94;100709.78;5067835;28;20715;-73
2021/09/16 10:49:33;;;;;;;3.13;2.20;;;;;;;18.12;70.78;100705.94;5060859;28;20297;-73
2021/09/16 10:52:17;;;;;;;5.23;2.33;;;;;;;18.25;70.26;100701.97;5065106;28;20289;-74
2021/09/16 10:54:47;;;;;;;3.10;2.40;;;;;;;18.38;69.70;100704.34;5056898;28;20208;-72
2021/09/16 10:57:16;;;;;;;2.97;2.57;;;;;;;18.48;68.86;100704.28;5065167;28;20235;-73
2021/09/16 11:00:07;;;;;;;6.40;2.10;;;;;;;18.53;68.08;100707.41;5056995;28;20238;-72
2021/09/16 11:03:04;;;;;;;4.07;2.50;;;;;;;18.56;67.70;100709.81;5059668;28;20199;-73
2021/09/16 11:05:46;;;;;;;4.60;1.93;;;;;;;18.59;67.08;100718.50;5055464;28;20211;-72
2021/09/16 11:08:15;;;;;;;3.53;1.83;;;;;;;18.64;66.54;100712.66;5065487;28;20230;-72
2021/09/16 11:10:57;;;;;;;2.97;2.30;;;;;;;18.69;66.46;100711.22;5058976;28;20258;-72
2021/09/16 11:13:36;;;;;;;3.37;2.50;;;;;;;18.77;66.17;100713.19;5058209;28;20202;-72
2021/09/16 11:16:06;;;;;;;3.40;1.90;;;;;;;18.81;65.94;100709.16;5056991;28;20226;-72
2021/09/16 11:18:33;;;;;;;4.20;2.00;;;;;;;18.87;65.75;100715.84;5063243;28;20209;-72
2021/09/16 11:21:01;;;;;;;3.20;2.00;;;;;;;18.91;65.69;100711.84;5064425;28;20232;-73
2021/09/16 11:23:38;;;;;;;3.77;2.47;;;;;;;18.95;65.60;100702.47;5061250;28;20212;-73
2021/09/16 11:26:05;;;;;;;3.27;2.07;;;;;;;18.94;65.12;100704.31;5060078;28;20206;-72
2021/09/16 11:28:31;;;;;;;3.80;2.57;;;;;;;18.95;65.23;100713.25;5060235;28;20351;-73
2021/09/16 11:30:58;;;;;;;4.50;2.73;;;;;;;18.94;65.15;100715.09;5024145;28;1074878;-72